map of RJTL home
RJTL - Airport
Location
City:  Shimofusa, Chiba, Japan
ICAO:RJTL

Details
Type:Airport (Aerodrome, Airfield)
Use:Military
Latitude:35°47'56"N (35.798944)
Longitude:140°00'40"E (140.011111)
Datum:WGS 1984
Elevation:98 ft (30 m)
Variation:7.56°W (WMM2015v2 magnetic declination)
-0.06° annual change
Runways:1
Longest:7380 × 150 ft (2249 × 45.5 m), paved

Time
Time Zone:UTC+9
Local Time:

Weather
METAR:RJTL 040138Z 32010G25KT 260V360 9999 FEW030 18/04 Q1006 RMK 1CU030 A2971

Related Locations
Nearby:
Farthest:SNPV: 11735 mi / 18886 km
Mostardas [Solidão], RS, BR

Find:

   beyond  
but within

Other Information
Maps:
NOTAMs:
Links:
Sources:

  
  • flag of Japan
  • flag of Chiba
  

Sectional Chart

Flight Planning
at skyvector.com

Satellite Image

Google Maps Satellite view

 

Copyright © 2004-2019 Karl L. Swartz. All rights reserved.
The Great Circle Mapper name and logo are trademarks of the Great Circle Mapper.
All other trademarks mentioned herein belong to their respective owners.
Please see credits for attibutions and further copyright information.

  Follow gcmap on Facebook Follow gcmap on Twitter GCmap on LinkedIn

hCard Microformat

Geo Microformat